Terminal Aerodrome Forecast
Issued by NWS

Home | Current Version | Previous Version | Text Only | Print | Product List | Glossary On
Versions: 1 2 3 4 5 6 7 8 9 10 11 12
415
FTUS46 KSGX 200520
TAFPSP
TAF
KPSP 200520Z 2006/2106 31011KT P6SM SKC
     FM200700 VRB06KT P6SM SCT200
     FM201900 33012G22KT P6SM SCT200
     FM202100 32015G30KT P6SM SKC=

USA.gov is the U.S. government's official web portal to all federal, state and local government web resources and services.